sensor_id;sensor_type;location;lat;lon;timestamp;temperature;humidity
2893;DHT22;1456;51.840;12.184;2022-10-17T00:02:14;14.30;99.90
2893;DHT22;1456;51.840;12.184;2022-10-17T00:04:42;14.40;99.90
2893;DHT22;1456;51.840;12.184;2022-10-17T00:07:08;14.40;99.90
2893;DHT22;1456;51.840;12.184;2022-10-17T00:09:33;14.50;99.90
2893;DHT22;1456;51.840;12.184;2022-10-17T00:11:59;14.50;99.90
2893;DHT22;1456;51.840;12.184;2022-10-17T00:14:28;14.50;99.90
2893;DHT22;1456;51.840;12.184;2022-10-17T00:16:56;14.50;99.90
2893;DHT22;1456;51.840;12.184;2022-10-17T00:19:23;14.50;99.90
2893;DHT22;1456;51.840;12.184;2022-10-17T00:21:48;14.50;99.90
2893;DHT22;1456;51.840;12.184;2022-10-17T00:24:14;14.60;99.90
2893;DHT22;1456;51.840;12.184;2022-10-17T00:26:41;14.70;99.90
2893;DHT22;1456;51.840;12.184;2022-10-17T00:29:06;14.70;99.90
2893;DHT22;1456;51.840;12.184;2022-10-17T00:31:33;14.70;99.90
2893;DHT22;1456;51.840;12.184;2022-10-17T00:34:00;14.60;99.90
2893;DHT22;1456;51.840;12.184;2022-10-17T00:36:26;14.60;99.90
2893;DHT22;1456;51.840;12.184;2022-10-17T00:38:54;14.50;99.90
2893;DHT22;1456;51.840;12.184;2022-10-17T00:41:24;14.40;99.90
2893;DHT22;1456;51.840;12.184;2022-10-17T00:46:46;14.50;99.90
2893;DHT22;1456;51.840;12.184;2022-10-17T00:49:12;14.50;99.90
2893;DHT22;1456;51.840;12.184;2022-10-17T00:51:46;14.60;99.90
2893;DHT22;1456;51.840;12.184;2022-10-17T00:54:24;14.60;99.90
2893;DHT22;1456;51.840;12.184;2022-10-17T00:56:54;14.60;99.90
2893;DHT22;1456;51.840;12.184;2022-10-17T00:59:22;14.50;99.90
2893;DHT22;1456;51.840;12.184;2022-10-17T01:02:11;14.50;99.90
2893;DHT22;1456;51.840;12.184;2022-10-17T01:04:44;14.30;99.90
2893;DHT22;1456;51.840;12.184;2022-10-17T01:07:10;14.30;99.90
2893;DHT22;1456;51.840;12.184;2022-10-17T01:09:37;14.20;99.90
2893;DHT22;1456;51.840;12.184;2022-10-17T01:12:19;14.20;99.90
2893;DHT22;1456;51.840;12.184;2022-10-17T01:17:41;14.10;99.90
2893;DHT22;1456;51.840;12.184;2022-10-17T01:23:21;14.30;99.90
2893;DHT22;1456;51.840;12.184;2022-10-17T01:32:10;14.60;99.90
2893;DHT22;1456;51.840;12.184;2022-10-17T01:37:38;14.60;99.90
2893;DHT22;1456;51.840;12.184;2022-10-17T01:40:15;14.50;99.90
2893;DHT22;1456;51.840;12.184;2022-10-17T01:42:52;14.50;99.90
2893;DHT22;1456;51.840;12.184;2022-10-17T01:45:30;14.60;99.90
2893;DHT22;1456;51.840;12.184;2022-10-17T01:48:04;14.70;99.90
2893;DHT22;1456;51.840;12.184;2022-10-17T01:50:38;14.70;99.90
2893;DHT22;1456;51.840;12.184;2022-10-17T01:53:15;14.60;99.90
2893;DHT22;1456;51.840;12.184;2022-10-17T01:55:44;14.50;99.90
2893;DHT22;1456;51.840;12.184;2022-10-17T01:58:26;14.50;99.90
2893;DHT22;1456;51.840;12.184;2022-10-17T02:00:54;14.50;99.90
2893;DHT22;1456;51.840;12.184;2022-10-17T02:03:21;14.40;99.90
2893;DHT22;1456;51.840;12.184;2022-10-17T02:05:48;14.40;99.90
2893;DHT22;1456;51.840;12.184;2022-10-17T02:08:27;14.30;99.90
2893;DHT22;1456;51.840;12.184;2022-10-17T02:10:54;14.20;99.90
2893;DHT22;1456;51.840;12.184;2022-10-17T02:29:28;14.00;99.90
2893;DHT22;1456;51.840;12.184;2022-10-17T02:32:04;14.00;99.90
2893;DHT22;1456;51.840;12.184;2022-10-17T02:34:41;14.00;99.90
2893;DHT22;1456;51.840;12.184;2022-10-17T02:37:11;13.90;99.90
2893;DHT22;1456;51.840;12.184;2022-10-17T02:39:39;13.80;99.90
2893;DHT22;1456;51.840;12.184;2022-10-17T02:42:08;13.80;99.90
2893;DHT22;1456;51.840;12.184;2022-10-17T02:44:37;13.80;99.90
2893;DHT22;1456;51.840;12.184;2022-10-17T02:47:17;13.80;99.90
2893;DHT22;1456;51.840;12.184;2022-10-17T02:49:49;13.80;99.90
2893;DHT22;1456;51.840;12.184;2022-10-17T02:52:44;13.80;99.90
2893;DHT22;1456;51.840;12.184;2022-10-17T02:55:32;13.80;99.90
2893;DHT22;1456;51.840;12.184;2022-10-17T02:58:16;13.80;99.90
2893;DHT22;1456;51.840;12.184;2022-10-17T03:00:44;13.70;99.90
2893;DHT22;1456;51.840;12.184;2022-10-17T03:03:29;13.70;99.90
2893;DHT22;1456;51.840;12.184;2022-10-17T03:05:59;13.60;99.90
2893;DHT22;1456;51.840;12.184;2022-10-17T03:08:28;13.60;99.90
2893;DHT22;1456;51.840;12.184;2022-10-17T03:10:54;13.70;99.90
2893;DHT22;1456;51.840;12.184;2022-10-17T03:13:23;13.70;99.90
2893;DHT22;1456;51.840;12.184;2022-10-17T03:15:52;13.60;99.90
2893;DHT22;1456;51.840;12.184;2022-10-17T03:18:20;13.70;99.90
2893;DHT22;1456;51.840;12.184;2022-10-17T03:20:45;13.70;99.90
2893;DHT22;1456;51.840;12.184;2022-10-17T03:23:11;13.50;99.90
2893;DHT22;1456;51.840;12.184;2022-10-17T03:25:36;13.50;99.90
2893;DHT22;1456;51.840;12.184;2022-10-17T03:28:02;13.50;99.90
2893;DHT22;1456;51.840;12.184;2022-10-17T03:30:31;13.50;99.90
2893;DHT22;1456;51.840;12.184;2022-10-17T03:32:58;13.50;99.90
2893;DHT22;1456;51.840;12.184;2022-10-17T03:35:25;13.50;99.90
2893;DHT22;1456;51.840;12.184;2022-10-17T03:37:54;13.50;99.90
2893;DHT22;1456;51.840;12.184;2022-10-17T03:40:20;13.50;99.90
2893;DHT22;1456;51.840;12.184;2022-10-17T03:42:45;13.50;99.90
2893;DHT22;1456;51.840;12.184;2022-10-17T03:45:11;13.50;99.90
2893;DHT22;1456;51.840;12.184;2022-10-17T03:47:37;13.50;99.90
2893;DHT22;1456;51.840;12.184;2022-10-17T03:50:05;13.40;99.90
2893;DHT22;1456;51.840;12.184;2022-10-17T03:52:30;13.40;99.90
2893;DHT22;1456;51.840;12.184;2022-10-17T03:54:57;13.40;99.90
2893;DHT22;1456;51.840;12.184;2022-10-17T03:57:23;13.40;99.90
2893;DHT22;1456;51.840;12.184;2022-10-17T03:59:49;13.40;99.90
2893;DHT22;1456;51.840;12.184;2022-10-17T04:02:18;13.40;99.90
2893;DHT22;1456;51.840;12.184;2022-10-17T04:04:44;13.30;99.90
2893;DHT22;1456;51.840;12.184;2022-10-17T04:07:14;13.30;99.90
2893;DHT22;1456;51.840;12.184;2022-10-17T04:09:39;13.20;99.90
2893;DHT22;1456;51.840;12.184;2022-10-17T04:12:05;13.20;99.90
2893;DHT22;1456;51.840;12.184;2022-10-17T04:14:30;13.20;99.90
2893;DHT22;1456;51.840;12.184;2022-10-17T04:16:57;13.20;99.90
2893;DHT22;1456;51.840;12.184;2022-10-17T04:19:23;13.20;99.90
2893;DHT22;1456;51.840;12.184;2022-10-17T04:21:51;13.30;99.90
2893;DHT22;1456;51.840;12.184;2022-10-17T04:24:18;13.40;99.90
2893;DHT22;1456;51.840;12.184;2022-10-17T04:26:44;13.50;99.90
2893;DHT22;1456;51.840;12.184;2022-10-17T04:29:15;13.60;99.90
2893;DHT22;1456;51.840;12.184;2022-10-17T04:31:40;13.60;99.90
2893;DHT22;1456;51.840;12.184;2022-10-17T04:34:06;13.60;99.90
2893;DHT22;1456;51.840;12.184;2022-10-17T04:36:32;13.70;99.90
2893;DHT22;1456;51.840;12.184;2022-10-17T04:38:59;13.80;99.90
2893;DHT22;1456;51.840;12.184;2022-10-17T04:41:29;13.80;99.90
2893;DHT22;1456;51.840;12.184;2022-10-17T04:43:54;13.80;99.90
2893;DHT22;1456;51.840;12.184;2022-10-17T04:46:20;13.90;99.90
2893;DHT22;1456;51.840;12.184;2022-10-17T04:48:46;13.80;99.90
2893;DHT22;1456;51.840;12.184;2022-10-17T04:51:15;13.80;99.90
2893;DHT22;1456;51.840;12.184;2022-10-17T04:53:42;13.80;99.90
2893;DHT22;1456;51.840;12.184;2022-10-17T04:56:13;13.80;99.90
2893;DHT22;1456;51.840;12.184;2022-10-17T04:58:42;13.90;99.90
2893;DHT22;1456;51.840;12.184;2022-10-17T05:01:17;13.80;99.90
2893;DHT22;1456;51.840;12.184;2022-10-17T05:03:47;13.90;99.90
2893;DHT22;1456;51.840;12.184;2022-10-17T05:06:18;14.00;99.90
2893;DHT22;1456;51.840;12.184;2022-10-17T05:08:45;14.00;99.90
2893;DHT22;1456;51.840;12.184;2022-10-17T05:11:27;14.10;99.90
2893;DHT22;1456;51.840;12.184;2022-10-17T05:13:58;14.10;99.90
2893;DHT22;1456;51.840;12.184;2022-10-17T05:16:26;14.10;99.90
2893;DHT22;1456;51.840;12.184;2022-10-17T05:18:56;14.10;99.90
2893;DHT22;1456;51.840;12.184;2022-10-17T05:21:25;14.10;99.90
2893;DHT22;1456;51.840;12.184;2022-10-17T05:23:52;14.10;99.90
2893;DHT22;1456;51.840;12.184;2022-10-17T05:26:19;14.10;99.90
2893;DHT22;1456;51.840;12.184;2022-10-17T05:28:48;14.10;99.90
2893;DHT22;1456;51.840;12.184;2022-10-17T05:31:14;14.10;99.90
2893;DHT22;1456;51.840;12.184;2022-10-17T05:33:40;14.10;99.90
2893;DHT22;1456;51.840;12.184;2022-10-17T05:36:06;14.10;99.90
2893;DHT22;1456;51.840;12.184;2022-10-17T05:38:32;14.10;99.90
2893;DHT22;1456;51.840;12.184;2022-10-17T05:41:01;14.20;99.90
2893;DHT22;1456;51.840;12.184;2022-10-17T05:43:28;14.20;99.90
2893;DHT22;1456;51.840;12.184;2022-10-17T05:45:54;14.20;99.90
2893;DHT22;1456;51.840;12.184;2022-10-17T05:48:21;14.30;99.90
2893;DHT22;1456;51.840;12.184;2022-10-17T05:50:49;14.30;99.90
2893;DHT22;1456;51.840;12.184;2022-10-17T05:53:15;14.30;99.90
2893;DHT22;1456;51.840;12.184;2022-10-17T05:55:43;14.40;99.90
2893;DHT22;1456;51.840;12.184;2022-10-17T05:58:08;14.50;99.90
2893;DHT22;1456;51.840;12.184;2022-10-17T06:00:34;14.50;99.90
2893;DHT22;1456;51.840;12.184;2022-10-17T06:03:03;14.60;99.90
2893;DHT22;1456;51.840;12.184;2022-10-17T06:05:29;14.70;99.90
2893;DHT22;1456;51.840;12.184;2022-10-17T06:07:58;14.80;99.90
2893;DHT22;1456;51.840;12.184;2022-10-17T06:10:23;14.80;99.90
2893;DHT22;1456;51.840;12.184;2022-10-17T06:12:50;14.80;99.90
2893;DHT22;1456;51.840;12.184;2022-10-17T06:15:19;14.80;99.90
2893;DHT22;1456;51.840;12.184;2022-10-17T06:17:45;14.90;99.90
2893;DHT22;1456;51.840;12.184;2022-10-17T06:20:11;14.90;99.90
2893;DHT22;1456;51.840;12.184;2022-10-17T06:22:37;14.80;99.90
2893;DHT22;1456;51.840;12.184;2022-10-17T06:25:03;14.90;99.90
2893;DHT22;1456;51.840;12.184;2022-10-17T06:27:29;15.00;99.90
2893;DHT22;1456;51.840;12.184;2022-10-17T06:29:55;15.10;99.90
2893;DHT22;1456;51.840;12.184;2022-10-17T06:32:21;15.20;99.90
2893;DHT22;1456;51.840;12.184;2022-10-17T06:34:46;15.20;99.90
2893;DHT22;1456;51.840;12.184;2022-10-17T06:37:13;15.30;99.90
2893;DHT22;1456;51.840;12.184;2022-10-17T06:39:39;15.40;99.90
2893;DHT22;1456;51.840;12.184;2022-10-17T06:42:04;15.50;99.90
2893;DHT22;1456;51.840;12.184;2022-10-17T06:44:31;15.60;99.90
2893;DHT22;1456;51.840;12.184;2022-10-17T06:47:02;15.80;99.90
2893;DHT22;1456;51.840;12.184;2022-10-17T06:49:28;15.90;99.90
2893;DHT22;1456;51.840;12.184;2022-10-17T06:51:54;16.10;99.90
2893;DHT22;1456;51.840;12.184;2022-10-17T06:54:19;16.20;99.90
2893;DHT22;1456;51.840;12.184;2022-10-17T06:56:45;16.40;99.90
2893;DHT22;1456;51.840;12.184;2022-10-17T06:59:11;16.60;99.90
2893;DHT22;1456;51.840;12.184;2022-10-17T07:01:37;16.70;99.90
2893;DHT22;1456;51.840;12.184;2022-10-17T07:04:02;16.70;99.90
2893;DHT22;1456;51.840;12.184;2022-10-17T07:06:28;16.80;99.90
2893;DHT22;1456;51.840;12.184;2022-10-17T07:08:55;16.80;99.90
2893;DHT22;1456;51.840;12.184;2022-10-17T07:11:21;16.90;99.90
2893;DHT22;1456;51.840;12.184;2022-10-17T07:13:47;17.00;99.90
2893;DHT22;1456;51.840;12.184;2022-10-17T07:16:14;17.10;99.90
2893;DHT22;1456;51.840;12.184;2022-10-17T07:18:48;17.10;99.90
2893;DHT22;1456;51.840;12.184;2022-10-17T07:21:16;17.20;99.90
2893;DHT22;1456;51.840;12.184;2022-10-17T07:23:42;17.20;99.90
2893;DHT22;1456;51.840;12.184;2022-10-17T07:26:13;17.20;99.90
2893;DHT22;1456;51.840;12.184;2022-10-17T07:28:41;17.10;99.90
2893;DHT22;1456;51.840;12.184;2022-10-17T07:31:11;17.20;99.90
2893;DHT22;1456;51.840;12.184;2022-10-17T07:33:41;17.30;99.90
2893;DHT22;1456;51.840;12.184;2022-10-17T07:36:07;17.40;99.90
2893;DHT22;1456;51.840;12.184;2022-10-17T07:38:36;17.60;99.90
2893;DHT22;1456;51.840;12.184;2022-10-17T07:41:05;17.60;99.90
2893;DHT22;1456;51.840;12.184;2022-10-17T07:43:33;17.80;99.90
2893;DHT22;1456;51.840;12.184;2022-10-17T07:46:00;17.90;99.90
2893;DHT22;1456;51.840;12.184;2022-10-17T07:48:26;18.00;99.90
2893;DHT22;1456;51.840;12.184;2022-10-17T07:50:54;18.10;99.90
2893;DHT22;1456;51.840;12.184;2022-10-17T07:53:19;18.20;99.90
2893;DHT22;1456;51.840;12.184;2022-10-17T07:55:48;18.30;99.90
2893;DHT22;1456;51.840;12.184;2022-10-17T07:58:14;18.50;99.90
2893;DHT22;1456;51.840;12.184;2022-10-17T08:00:40;18.50;99.90
2893;DHT22;1456;51.840;12.184;2022-10-17T08:03:09;18.60;99.90
2893;DHT22;1456;51.840;12.184;2022-10-17T08:05:36;18.80;99.90
2893;DHT22;1456;51.840;12.184;2022-10-17T08:08:01;19.00;99.90
2893;DHT22;1456;51.840;12.184;2022-10-17T08:10:29;19.10;99.90
2893;DHT22;1456;51.840;12.184;2022-10-17T08:12:56;19.30;99.90
2893;DHT22;1456;51.840;12.184;2022-10-17T08:15:30;19.40;99.90
2893;DHT22;1456;51.840;12.184;2022-10-17T08:17:58;19.50;99.90
2893;DHT22;1456;51.840;12.184;2022-10-17T08:20:27;19.50;99.90
2893;DHT22;1456;51.840;12.184;2022-10-17T08:22:55;19.60;99.90
2893;DHT22;1456;51.840;12.184;2022-10-17T08:25:22;19.70;99.90
2893;DHT22;1456;51.840;12.184;2022-10-17T08:27:50;19.80;99.90
2893;DHT22;1456;51.840;12.184;2022-10-17T08:30:16;19.80;99.90
2893;DHT22;1456;51.840;12.184;2022-10-17T08:32:42;20.00;99.90
2893;DHT22;1456;51.840;12.184;2022-10-17T08:35:10;20.00;99.90
2893;DHT22;1456;51.840;12.184;2022-10-17T08:37:36;20.00;99.90
2893;DHT22;1456;51.840;12.184;2022-10-17T08:40:05;20.10;99.90
2893;DHT22;1456;51.840;12.184;2022-10-17T08:43:33;20.30;99.90
2893;DHT22;1456;51.840;12.184;2022-10-17T08:46:07;20.40;99.90
2893;DHT22;1456;51.840;12.184;2022-10-17T08:48:38;20.50;99.90
2893;DHT22;1456;51.840;12.184;2022-10-17T08:51:16;20.60;99.90
2893;DHT22;1456;51.840;12.184;2022-10-17T08:59:27;20.80;99.90
2893;DHT22;1456;51.840;12.184;2022-10-17T09:16:27;21.30;99.90
2893;DHT22;1456;51.840;12.184;2022-10-17T09:19:18;21.40;99.90
2893;DHT22;1456;51.840;12.184;2022-10-17T09:21:48;21.60;99.90
2893;DHT22;1456;51.840;12.184;2022-10-17T09:24:44;21.80;99.90
2893;DHT22;1456;51.840;12.184;2022-10-17T09:29:57;22.20;99.90
2893;DHT22;1456;51.840;12.184;2022-10-17T09:32:26;22.30;99.90
2893;DHT22;1456;51.840;12.184;2022-10-17T09:34:53;22.50;99.90
2893;DHT22;1456;51.840;12.184;2022-10-17T09:37:25;22.60;99.90
2893;DHT22;1456;51.840;12.184;2022-10-17T09:39:53;22.70;99.90
2893;DHT22;1456;51.840;12.184;2022-10-17T09:42:19;22.70;99.90
2893;DHT22;1456;51.840;12.184;2022-10-17T09:45:11;22.70;99.90
2893;DHT22;1456;51.840;12.184;2022-10-17T09:47:41;22.70;99.90
2893;DHT22;1456;51.840;12.184;2022-10-17T09:50:22;22.70;99.90
2893;DHT22;1456;51.840;12.184;2022-10-17T09:52:52;23.00;99.90
2893;DHT22;1456;51.840;12.184;2022-10-17T09:57:58;23.30;99.90
2893;DHT22;1456;51.840;12.184;2022-10-17T10:00:33;23.50;99.90
2893;DHT22;1456;51.840;12.184;2022-10-17T10:03:25;23.70;99.90
2893;DHT22;1456;51.840;12.184;2022-10-17T10:08:52;24.10;99.90
2893;DHT22;1456;51.840;12.184;2022-10-17T10:11:22;24.40;99.90
2893;DHT22;1456;51.840;12.184;2022-10-17T10:13:49;24.60;99.90
2893;DHT22;1456;51.840;12.184;2022-10-17T10:16:30;24.90;99.90
2893;DHT22;1456;51.840;12.184;2022-10-17T10:18:56;25.10;99.90
2893;DHT22;1456;51.840;12.184;2022-10-17T10:21:24;25.20;99.70
2893;DHT22;1456;51.840;12.184;2022-10-17T10:24:04;25.20;99.20
2893;DHT22;1456;51.840;12.184;2022-10-17T10:29:51;25.30;99.50
2893;DHT22;1456;51.840;12.184;2022-10-17T10:31:53;25.80;98.50
2893;DHT22;1456;51.840;12.184;2022-10-17T10:34:28;25.80;98.70
2893;DHT22;1456;51.840;12.184;2022-10-17T10:37:03;25.80;98.00
2893;DHT22;1456;51.840;12.184;2022-10-17T10:39:48;25.90;98.60
2893;DHT22;1456;51.840;12.184;2022-10-17T10:42:24;26.20;97.80
2893;DHT22;1456;51.840;12.184;2022-10-17T10:44:53;26.20;96.80
2893;DHT22;1456;51.840;12.184;2022-10-17T10:47:25;26.30;97.70
2893;DHT22;1456;51.840;12.184;2022-10-17T10:50:15;26.50;96.80
2893;DHT22;1456;51.840;12.184;2022-10-17T10:55:36;26.10;97.00
2893;DHT22;1456;51.840;12.184;2022-10-17T11:01:42;26.10;97.20
2893;DHT22;1456;51.840;12.184;2022-10-17T11:04:35;26.00;96.90
2893;DHT22;1456;51.840;12.184;2022-10-17T11:07:09;26.30;96.30
2893;DHT22;1456;51.840;12.184;2022-10-17T11:12:45;26.20;96.70
2893;DHT22;1456;51.840;12.184;2022-10-17T11:18:02;26.80;94.90
2893;DHT22;1456;51.840;12.184;2022-10-17T11:20:43;26.70;95.00
2893;DHT22;1456;51.840;12.184;2022-10-17T11:25:53;26.90;95.20
2893;DHT22;1456;51.840;12.184;2022-10-17T11:28:22;27.50;94.80
2893;DHT22;1456;51.840;12.184;2022-10-17T11:31:11;27.60;94.00
2893;DHT22;1456;51.840;12.184;2022-10-17T11:34:01;27.80;93.60
2893;DHT22;1456;51.840;12.184;2022-10-17T11:36:31;27.70;93.60
2893;DHT22;1456;51.840;12.184;2022-10-17T11:41:38;27.80;92.90
2893;DHT22;1456;51.840;12.184;2022-10-17T11:55:13;28.10;93.30
2893;DHT22;1456;51.840;12.184;2022-10-17T12:01:14;28.20;93.20
2893;DHT22;1456;51.840;12.184;2022-10-17T12:04:10;28.80;92.70
2893;DHT22;1456;51.840;12.184;2022-10-17T12:12:41;28.60;91.70
2893;DHT22;1456;51.840;12.184;2022-10-17T12:17:39;28.20;92.30
2893;DHT22;1456;51.840;12.184;2022-10-17T12:25:21;29.00;91.50
2893;DHT22;1456;51.840;12.184;2022-10-17T12:27:49;29.00;91.30
2893;DHT22;1456;51.840;12.184;2022-10-17T12:30:23;29.10;91.70
2893;DHT22;1456;51.840;12.184;2022-10-17T12:35:47;29.70;90.40
2893;DHT22;1456;51.840;12.184;2022-10-17T12:38:20;29.50;89.60
2893;DHT22;1456;51.840;12.184;2022-10-17T12:40:54;29.80;90.10
2893;DHT22;1456;51.840;12.184;2022-10-17T12:45:57;30.80;86.90
2893;DHT22;1456;51.840;12.184;2022-10-17T12:53:43;31.70;84.40
2893;DHT22;1456;51.840;12.184;2022-10-17T12:56:13;31.20;84.30
2893;DHT22;1456;51.840;12.184;2022-10-17T12:58:48;31.10;86.00
2893;DHT22;1456;51.840;12.184;2022-10-17T13:01:27;31.60;86.00
2893;DHT22;1456;51.840;12.184;2022-10-17T13:03:54;32.20;81.90
2893;DHT22;1456;51.840;12.184;2022-10-17T13:06:23;32.10;81.60
2893;DHT22;1456;51.840;12.184;2022-10-17T13:08:57;31.80;82.40
2893;DHT22;1456;51.840;12.184;2022-10-17T13:11:26;31.50;80.90
2893;DHT22;1456;51.840;12.184;2022-10-17T13:13:56;31.70;79.90
2893;DHT22;1456;51.840;12.184;2022-10-17T13:16:54;32.10;82.00
2893;DHT22;1456;51.840;12.184;2022-10-17T13:19:26;31.00;78.50
2893;DHT22;1456;51.840;12.184;2022-10-17T13:22:02;30.20;82.00
2893;DHT22;1456;51.840;12.184;2022-10-17T13:24:36;30.70;83.80
2893;DHT22;1456;51.840;12.184;2022-10-17T13:27:03;31.40;82.20
2893;DHT22;1456;51.840;12.184;2022-10-17T13:29:29;32.00;80.40
2893;DHT22;1456;51.840;12.184;2022-10-17T13:32:17;32.50;78.80
2893;DHT22;1456;51.840;12.184;2022-10-17T13:34:43;32.70;77.70
2893;DHT22;1456;51.840;12.184;2022-10-17T13:37:13;32.30;76.40
2893;DHT22;1456;51.840;12.184;2022-10-17T13:39:41;32.10;77.90
2893;DHT22;1456;51.840;12.184;2022-10-17T13:42:28;32.30;77.70
2893;DHT22;1456;51.840;12.184;2022-10-17T13:45:04;32.80;78.60
2893;DHT22;1456;51.840;12.184;2022-10-17T13:47:36;32.20;77.40
2893;DHT22;1456;51.840;12.184;2022-10-17T13:50:04;31.70;77.80
2893;DHT22;1456;51.840;12.184;2022-10-17T13:52:30;31.10;78.20
2893;DHT22;1456;51.840;12.184;2022-10-17T13:55:07;30.30;79.80
2893;DHT22;1456;51.840;12.184;2022-10-17T13:57:32;30.30;80.40
2893;DHT22;1456;51.840;12.184;2022-10-17T14:00:00;30.30;80.60
2893;DHT22;1456;51.840;12.184;2022-10-17T14:02:29;29.90;81.40
2893;DHT22;1456;51.840;12.184;2022-10-17T14:05:20;29.20;80.60
2893;DHT22;1456;51.840;12.184;2022-10-17T14:07:57;28.60;77.10
2893;DHT22;1456;51.840;12.184;2022-10-17T14:10:33;27.80;77.80
2893;DHT22;1456;51.840;12.184;2022-10-17T14:12:59;27.50;77.80
2893;DHT22;1456;51.840;12.184;2022-10-17T14:15:27;26.90;77.80
2893;DHT22;1456;51.840;12.184;2022-10-17T14:17:57;26.70;78.50
2893;DHT22;1456;51.840;12.184;2022-10-17T14:20:24;26.40;79.60
2893;DHT22;1456;51.840;12.184;2022-10-17T14:22:50;26.30;81.10
2893;DHT22;1456;51.840;12.184;2022-10-17T14:25:37;26.50;80.30
2893;DHT22;1456;51.840;12.184;2022-10-17T14:30:38;26.40;82.40
2893;DHT22;1456;51.840;12.184;2022-10-17T14:35:51;26.20;83.70
2893;DHT22;1456;51.840;12.184;2022-10-17T14:38:18;26.10;82.40
2893;DHT22;1456;51.840;12.184;2022-10-17T14:40:55;26.40;82.60
2893;DHT22;1456;51.840;12.184;2022-10-17T14:43:24;26.80;81.50
2893;DHT22;1456;51.840;12.184;2022-10-17T14:45:50;27.60;81.20
2893;DHT22;1456;51.840;12.184;2022-10-17T14:48:19;28.20;79.30
2893;DHT22;1456;51.840;12.184;2022-10-17T14:53:30;28.10;79.00
2893;DHT22;1456;51.840;12.184;2022-10-17T14:56:04;27.80;79.10
2893;DHT22;1456;51.840;12.184;2022-10-17T14:58:33;27.30;79.90
2893;DHT22;1456;51.840;12.184;2022-10-17T15:01:01;26.60;81.20
2893;DHT22;1456;51.840;12.184;2022-10-17T15:03:26;26.20;82.10
2893;DHT22;1456;51.840;12.184;2022-10-17T15:05:53;25.80;82.90
2893;DHT22;1456;51.840;12.184;2022-10-17T15:08:21;25.50;84.40
2893;DHT22;1456;51.840;12.184;2022-10-17T15:10:50;25.30;84.70
2893;DHT22;1456;51.840;12.184;2022-10-17T15:13:16;25.20;85.90
2893;DHT22;1456;51.840;12.184;2022-10-17T15:15:44;25.10;86.30
2893;DHT22;1456;51.840;12.184;2022-10-17T15:18:15;25.00;87.90
2893;DHT22;1456;51.840;12.184;2022-10-17T15:20:41;24.90;87.10
2893;DHT22;1456;51.840;12.184;2022-10-17T15:23:07;24.80;87.80
2893;DHT22;1456;51.840;12.184;2022-10-17T15:25:33;24.70;88.80
2893;DHT22;1456;51.840;12.184;2022-10-17T15:28:00;24.70;89.10
2893;DHT22;1456;51.840;12.184;2022-10-17T15:30:30;24.70;89.70
2893;DHT22;1456;51.840;12.184;2022-10-17T15:32:57;24.60;90.20
2893;DHT22;1456;51.840;12.184;2022-10-17T15:35:24;24.60;90.80
2893;DHT22;1456;51.840;12.184;2022-10-17T15:37:51;24.50;90.80
2893;DHT22;1456;51.840;12.184;2022-10-17T15:40:26;24.50;91.40
2893;DHT22;1456;51.840;12.184;2022-10-17T15:42:56;24.40;91.20
2893;DHT22;1456;51.840;12.184;2022-10-17T15:45:23;24.40;91.50
2893;DHT22;1456;51.840;12.184;2022-10-17T15:47:59;24.30;91.50
2893;DHT22;1456;51.840;12.184;2022-10-17T15:50:27;24.20;91.90
2893;DHT22;1456;51.840;12.184;2022-10-17T15:52:55;24.00;91.70
2893;DHT22;1456;51.840;12.184;2022-10-17T15:55:21;23.90;92.20
2893;DHT22;1456;51.840;12.184;2022-10-17T15:57:48;23.70;92.50
2893;DHT22;1456;51.840;12.184;2022-10-17T16:00:20;23.50;92.90
2893;DHT22;1456;51.840;12.184;2022-10-17T16:02:47;23.40;93.70
2893;DHT22;1456;51.840;12.184;2022-10-17T16:05:17;23.30;93.80
2893;DHT22;1456;51.840;12.184;2022-10-17T16:07:44;23.20;94.00
2893;DHT22;1456;51.840;12.184;2022-10-17T16:10:14;23.10;94.20
2893;DHT22;1456;51.840;12.184;2022-10-17T16:12:46;23.00;94.30
2893;DHT22;1456;51.840;12.184;2022-10-17T16:15:15;23.00;94.70
2893;DHT22;1456;51.840;12.184;2022-10-17T16:17:41;22.90;95.00
2893;DHT22;1456;51.840;12.184;2022-10-17T16:20:09;22.80;95.20
2893;DHT22;1456;51.840;12.184;2022-10-17T16:22:37;22.70;95.40
2893;DHT22;1456;51.840;12.184;2022-10-17T16:25:09;22.60;95.70
2893;DHT22;1456;51.840;12.184;2022-10-17T16:27:46;22.60;95.50
2893;DHT22;1456;51.840;12.184;2022-10-17T16:30:12;22.50;95.90
2893;DHT22;1456;51.840;12.184;2022-10-17T16:32:38;22.60;95.70
2893;DHT22;1456;51.840;12.184;2022-10-17T16:35:06;22.50;95.60
2893;DHT22;1456;51.840;12.184;2022-10-17T16:37:31;22.40;95.90
2893;DHT22;1456;51.840;12.184;2022-10-17T16:39:57;22.40;96.20
2893;DHT22;1456;51.840;12.184;2022-10-17T16:42:23;22.30;96.70
2893;DHT22;1456;51.840;12.184;2022-10-17T16:44:49;22.20;97.30
2893;DHT22;1456;51.840;12.184;2022-10-17T16:47:16;22.10;97.40
2893;DHT22;1456;51.840;12.184;2022-10-17T16:49:42;22.00;97.60
2893;DHT22;1456;51.840;12.184;2022-10-17T16:52:08;21.80;97.80
2893;DHT22;1456;51.840;12.184;2022-10-17T16:54:34;21.70;97.80
2893;DHT22;1456;51.840;12.184;2022-10-17T16:57:00;21.70;98.10
2893;DHT22;1456;51.840;12.184;2022-10-17T16:59:27;21.60;98.40
2893;DHT22;1456;51.840;12.184;2022-10-17T17:01:54;21.50;98.80
2893;DHT22;1456;51.840;12.184;2022-10-17T17:04:20;21.40;99.00
2893;DHT22;1456;51.840;12.184;2022-10-17T17:06:46;21.40;99.10
2893;DHT22;1456;51.840;12.184;2022-10-17T17:09:12;21.30;99.60
2893;DHT22;1456;51.840;12.184;2022-10-17T17:11:38;21.30;99.80
2893;DHT22;1456;51.840;12.184;2022-10-17T17:14:05;21.10;99.60
2893;DHT22;1456;51.840;12.184;2022-10-17T17:16:33;21.10;99.60
2893;DHT22;1456;51.840;12.184;2022-10-17T17:19:04;21.00;99.90
2893;DHT22;1456;51.840;12.184;2022-10-17T17:21:31;21.00;99.90
2893;DHT22;1456;51.840;12.184;2022-10-17T17:23:58;20.90;99.80
2893;DHT22;1456;51.840;12.184;2022-10-17T17:26:26;21.00;99.90
2893;DHT22;1456;51.840;12.184;2022-10-17T17:28:52;20.90;99.90
2893;DHT22;1456;51.840;12.184;2022-10-17T17:31:20;20.90;99.90
2893;DHT22;1456;51.840;12.184;2022-10-17T17:33:48;20.80;99.90
2893;DHT22;1456;51.840;12.184;2022-10-17T17:36:18;20.80;99.90
2893;DHT22;1456;51.840;12.184;2022-10-17T17:38:44;20.70;99.90
2893;DHT22;1456;51.840;12.184;2022-10-17T17:41:11;20.70;99.90
2893;DHT22;1456;51.840;12.184;2022-10-17T17:43:42;20.60;99.90
2893;DHT22;1456;51.840;12.184;2022-10-17T17:46:08;20.60;99.90
2893;DHT22;1456;51.840;12.184;2022-10-17T17:48:40;20.50;99.90
2893;DHT22;1456;51.840;12.184;2022-10-17T17:51:08;20.60;99.90
2893;DHT22;1456;51.840;12.184;2022-10-17T17:53:35;20.50;99.90
2893;DHT22;1456;51.840;12.184;2022-10-17T17:56:16;20.50;99.90
2893;DHT22;1456;51.840;12.184;2022-10-17T17:58:46;20.50;99.90
2893;DHT22;1456;51.840;12.184;2022-10-17T18:01:20;20.40;99.90
2893;DHT22;1456;51.840;12.184;2022-10-17T18:03:50;20.30;99.90
2893;DHT22;1456;51.840;12.184;2022-10-17T18:06:18;20.30;99.90
2893;DHT22;1456;51.840;12.184;2022-10-17T18:08:51;20.20;99.90
2893;DHT22;1456;51.840;12.184;2022-10-17T18:11:17;20.10;99.90
2893;DHT22;1456;51.840;12.184;2022-10-17T18:13:43;20.00;99.90